sensor_id;sensor_type;location;lat;lon;timestamp;pressure;altitude;pressure_sealevel;temperature;humidity
59829;BME280;45708;51.848;107.620;2022-12-05T00:03:32;95902.50;;;-14.97;69.53
59829;BME280;45708;51.848;107.620;2022-12-05T00:08:33;95881.75;;;-15.10;70.25
59829;BME280;45708;51.848;107.620;2022-12-05T00:13:34;95909.94;;;-14.92;70.48
59829;BME280;45708;51.848;107.620;2022-12-05T00:18:36;95905.72;;;-14.92;69.75
59829;BME280;45708;51.848;107.620;2022-12-05T00:23:40;95903.47;;;-15.02;69.97
59829;BME280;45708;51.848;107.620;2022-12-05T00:28:42;95899.28;;;-15.03;69.09
59829;BME280;45708;51.848;107.620;2022-12-05T00:33:43;95841.16;;;-15.36;69.85
59829;BME280;45708;51.848;107.620;2022-12-05T00:38:46;95894.56;;;-15.14;68.80
59829;BME280;45708;51.848;107.620;2022-12-05T00:43:48;95909.56;;;-15.08;69.33
59829;BME280;45708;51.848;107.620;2022-12-05T00:48:51;95906.25;;;-15.10;69.45
59829;BME280;45708;51.848;107.620;2022-12-05T00:53:53;95884.78;;;-15.26;69.70
59829;BME280;45708;51.848;107.620;2022-12-05T00:58:56;95899.53;;;-15.11;68.96
59829;BME280;45708;51.848;107.620;2022-12-05T01:04:05;95895.84;;;-15.01;68.39
59829;BME280;45708;51.848;107.620;2022-12-05T01:09:09;95875.75;;;-15.07;68.64
59829;BME280;45708;51.848;107.620;2022-12-05T01:14:13;95907.38;;;-14.91;68.88
59829;BME280;45708;51.848;107.620;2022-12-05T01:19:24;95904.59;;;-14.83;68.65
59829;BME280;45708;51.848;107.620;2022-12-05T01:24:26;95907.84;;;-14.78;68.80
59829;BME280;45708;51.848;107.620;2022-12-05T01:29:28;95889.78;;;-14.69;68.83
59829;BME280;45708;51.848;107.620;2022-12-05T01:34:29;95885.31;;;-14.61;67.42
59829;BME280;45708;51.848;107.620;2022-12-05T01:39:30;95871.00;;;-14.63;67.99
59829;BME280;45708;51.848;107.620;2022-12-05T01:49:36;95875.69;;;-14.51;68.34
59829;BME280;45708;51.848;107.620;2022-12-05T01:54:38;95879.47;;;-14.38;67.92
59829;BME280;45708;51.848;107.620;2022-12-05T01:59:44;95879.53;;;-14.39;66.03
59829;BME280;45708;51.848;107.620;2022-12-05T02:05:05;95876.53;;;-14.51;66.24
59829;BME280;45708;51.848;107.620;2022-12-05T02:10:09;95846.56;;;-14.66;64.78
59829;BME280;45708;51.848;107.620;2022-12-05T02:15:20;95867.69;;;-14.65;65.89
59829;BME280;45708;51.848;107.620;2022-12-05T02:20:47;95813.94;;;-14.50;65.37
59829;BME280;45708;51.848;107.620;2022-12-05T02:25:59;95875.28;;;-13.89;65.81
59829;BME280;45708;51.848;107.620;2022-12-05T02:36:39;95872.81;;;-13.67;63.94
59829;BME280;45708;51.848;107.620;2022-12-05T02:46:51;95843.59;;;-13.32;63.97
59829;BME280;45708;51.848;107.620;2022-12-05T02:51:57;95876.00;;;-12.94;63.16
59829;BME280;45708;51.848;107.620;2022-12-05T02:56:59;95854.56;;;-12.88;63.60
59829;BME280;45708;51.848;107.620;2022-12-05T03:02:00;95840.59;;;-13.20;62.45
59829;BME280;45708;51.848;107.620;2022-12-05T03:07:09;95779.72;;;-13.92;62.75
59829;BME280;45708;51.848;107.620;2022-12-05T03:12:36;95854.97;;;-13.42;62.77
59829;BME280;45708;51.848;107.620;2022-12-05T03:17:53;95852.22;;;-13.36;63.44
59829;BME280;45708;51.848;107.620;2022-12-05T03:23:03;95846.13;;;-13.32;62.99
59829;BME280;45708;51.848;107.620;2022-12-05T03:28:20;95812.75;;;-13.46;63.68
59829;BME280;45708;51.848;107.620;2022-12-05T03:33:26;95828.00;;;-13.03;62.92
59829;BME280;45708;51.848;107.620;2022-12-05T03:54:07;95781.53;;;-11.66;59.71
59829;BME280;45708;51.848;107.620;2022-12-05T03:59:19;95780.84;;;-11.50;59.43
59829;BME280;45708;51.848;107.620;2022-12-05T04:04:33;95777.25;;;-11.27;56.29
59829;BME280;45708;51.848;107.620;2022-12-05T04:09:46;95785.13;;;-11.70;58.01
59829;BME280;45708;51.848;107.620;2022-12-05T04:14:59;95767.00;;;-11.63;58.51
59829;BME280;45708;51.848;107.620;2022-12-05T04:20:38;95767.34;;;-11.52;58.66
59829;BME280;45708;51.848;107.620;2022-12-05T04:36:09;95724.72;;;-11.68;58.16
59829;BME280;45708;51.848;107.620;2022-12-05T04:41:32;95678.00;;;-12.04;57.46
59829;BME280;45708;51.848;107.620;2022-12-05T04:46:34;95652.25;;;-12.36;58.13
59829;BME280;45708;51.848;107.620;2022-12-05T04:51:39;95719.84;;;-11.91;58.21
59829;BME280;45708;51.848;107.620;2022-12-05T04:56:43;95701.72;;;-12.22;57.98
59829;BME280;45708;51.848;107.620;2022-12-05T05:01:52;95712.44;;;-11.95;57.37
59829;BME280;45708;51.848;107.620;2022-12-05T05:06:55;95681.25;;;-12.19;58.08
59829;BME280;45708;51.848;107.620;2022-12-05T05:11:56;95698.78;;;-12.13;58.77
59829;BME280;45708;51.848;107.620;2022-12-05T05:16:57;95689.72;;;-12.00;58.43
59829;BME280;45708;51.848;107.620;2022-12-05T05:21:58;95693.63;;;-11.93;57.84
59829;BME280;45708;51.848;107.620;2022-12-05T05:26:59;95696.31;;;-11.96;58.01
59829;BME280;45708;51.848;107.620;2022-12-05T05:32:00;95709.06;;;-11.96;59.28
59829;BME280;45708;51.848;107.620;2022-12-05T05:37:01;95689.31;;;-11.55;58.44
59829;BME280;45708;51.848;107.620;2022-12-05T05:42:02;95680.78;;;-11.73;57.94
59829;BME280;45708;51.848;107.620;2022-12-05T05:47:03;95662.38;;;-11.60;57.89
59829;BME280;45708;51.848;107.620;2022-12-05T05:52:04;95614.22;;;-11.84;57.61
59829;BME280;45708;51.848;107.620;2022-12-05T05:57:06;95662.81;;;-11.70;57.43
59829;BME280;45708;51.848;107.620;2022-12-05T06:02:08;95636.53;;;-11.89;57.86
59829;BME280;45708;51.848;107.620;2022-12-05T06:07:09;95569.28;;;-12.40;58.49
59829;BME280;45708;51.848;107.620;2022-12-05T06:12:10;95627.03;;;-11.85;58.17
59829;BME280;45708;51.848;107.620;2022-12-05T06:17:11;95600.28;;;-11.94;58.02
59829;BME280;45708;51.848;107.620;2022-12-05T06:22:12;95618.88;;;-11.75;57.78
59829;BME280;45708;51.848;107.620;2022-12-05T06:27:13;95620.91;;;-11.81;57.28
59829;BME280;45708;51.848;107.620;2022-12-05T06:32:14;95602.56;;;-12.07;57.97
59829;BME280;45708;51.848;107.620;2022-12-05T06:37:15;95625.91;;;-11.97;57.65
59829;BME280;45708;51.848;107.620;2022-12-05T06:42:16;95624.84;;;-11.93;58.24
59829;BME280;45708;51.848;107.620;2022-12-05T06:47:17;95628.31;;;-11.77;58.39
59829;BME280;45708;51.848;107.620;2022-12-05T06:52:17;95607.03;;;-11.76;57.42
59829;BME280;45708;51.848;107.620;2022-12-05T06:57:18;95618.31;;;-11.80;56.80
59829;BME280;45708;51.848;107.620;2022-12-05T07:02:19;95611.97;;;-11.90;57.36
59829;BME280;45708;51.848;107.620;2022-12-05T07:07:20;95548.50;;;-12.49;57.16
59829;BME280;45708;51.848;107.620;2022-12-05T07:12:21;95618.25;;;-12.16;58.43
59829;BME280;45708;51.848;107.620;2022-12-05T07:17:22;95597.06;;;-11.98;58.17
59829;BME280;45708;51.848;107.620;2022-12-05T07:22:23;95535.56;;;-12.45;58.81
59829;BME280;45708;51.848;107.620;2022-12-05T07:27:25;95582.84;;;-12.03;58.64
59829;BME280;45708;51.848;107.620;2022-12-05T07:32:32;95560.22;;;-12.09;58.65
59829;BME280;45708;51.848;107.620;2022-12-05T07:37:33;95556.97;;;-11.94;59.22
59829;BME280;45708;51.848;107.620;2022-12-05T07:42:34;95567.84;;;-11.90;59.60
59829;BME280;45708;51.848;107.620;2022-12-05T07:47:35;95565.22;;;-11.89;59.85
59829;BME280;45708;51.848;107.620;2022-12-05T07:52:37;95566.00;;;-12.06;59.69
59829;BME280;45708;51.848;107.620;2022-12-05T07:57:39;95538.03;;;-12.24;59.84
59829;BME280;45708;51.848;107.620;2022-12-05T08:02:40;95516.44;;;-12.35;59.90
59829;BME280;45708;51.848;107.620;2022-12-05T08:07:41;95512.28;;;-12.18;59.71
59829;BME280;45708;51.848;107.620;2022-12-05T08:12:42;95534.19;;;-12.52;59.90
59829;BME280;45708;51.848;107.620;2022-12-05T08:17:43;95501.34;;;-12.75;60.72
59829;BME280;45708;51.848;107.620;2022-12-05T08:22:44;95524.34;;;-12.97;61.00
59829;BME280;45708;51.848;107.620;2022-12-05T08:27:44;95508.72;;;-13.08;61.53
59829;BME280;45708;51.848;107.620;2022-12-05T08:32:45;95530.72;;;-13.07;60.97
59829;BME280;45708;51.848;107.620;2022-12-05T08:37:47;95480.50;;;-13.40;61.05
59829;BME280;45708;51.848;107.620;2022-12-05T08:42:47;95503.78;;;-13.30;61.29
59829;BME280;45708;51.848;107.620;2022-12-05T08:47:48;95514.63;;;-13.08;60.87
59829;BME280;45708;51.848;107.620;2022-12-05T08:52:49;95465.03;;;-13.35;60.60
59829;BME280;45708;51.848;107.620;2022-12-05T08:57:50;95530.16;;;-13.14;60.07
59829;BME280;45708;51.848;107.620;2022-12-05T09:02:52;95517.78;;;-13.40;61.37
59829;BME280;45708;51.848;107.620;2022-12-05T09:07:53;95518.91;;;-13.27;60.68
59829;BME280;45708;51.848;107.620;2022-12-05T09:12:54;95501.41;;;-13.54;62.04
59829;BME280;45708;51.848;107.620;2022-12-05T09:17:56;95506.75;;;-13.60;61.67
59829;BME280;45708;51.848;107.620;2022-12-05T09:22:57;95490.97;;;-13.68;62.26
59829;BME280;45708;51.848;107.620;2022-12-05T09:27:58;95459.88;;;-13.93;62.34
59829;BME280;45708;51.848;107.620;2022-12-05T09:33:02;95470.53;;;-13.85;63.07
59829;BME280;45708;51.848;107.620;2022-12-05T09:38:03;95421.25;;;-14.22;63.67
59829;BME280;45708;51.848;107.620;2022-12-05T09:43:06;95466.47;;;-13.89;63.46
59829;BME280;45708;51.848;107.620;2022-12-05T09:48:18;95472.00;;;-14.00;63.70
59829;BME280;45708;51.848;107.620;2022-12-05T09:53:36;95472.69;;;-13.96;63.77
59829;BME280;45708;51.848;107.620;2022-12-05T09:58:47;95467.50;;;-13.93;63.58
59829;BME280;45708;51.848;107.620;2022-12-05T10:15:00;95448.84;;;-13.92;64.23
59829;BME280;45708;51.848;107.620;2022-12-05T10:20:24;95445.91;;;-13.83;63.41
59829;BME280;45708;51.848;107.620;2022-12-05T10:25:26;95435.44;;;-13.96;63.40
59829;BME280;45708;51.848;107.620;2022-12-05T10:30:31;95385.50;;;-14.16;63.88
59829;BME280;45708;51.848;107.620;2022-12-05T10:35:35;95425.03;;;-13.90;64.02
59829;BME280;45708;51.848;107.620;2022-12-05T10:40:39;95411.78;;;-14.17;64.67
59829;BME280;45708;51.848;107.620;2022-12-05T10:45:43;95431.25;;;-13.97;63.70
59829;BME280;45708;51.848;107.620;2022-12-05T10:50:49;95429.16;;;-13.87;64.48
59829;BME280;45708;51.848;107.620;2022-12-05T10:55:51;95420.88;;;-13.72;64.67
59829;BME280;45708;51.848;107.620;2022-12-05T11:01:12;95411.97;;;-13.62;65.13
59829;BME280;45708;51.848;107.620;2022-12-05T11:06:15;95403.22;;;-13.55;64.53
59829;BME280;45708;51.848;107.620;2022-12-05T11:16:28;95356.22;;;-13.65;64.38
59829;BME280;45708;51.848;107.620;2022-12-05T11:21:41;95325.00;;;-13.67;63.91
59829;BME280;45708;51.848;107.620;2022-12-05T11:26:42;95324.09;;;-13.66;63.85
59829;BME280;45708;51.848;107.620;2022-12-05T11:31:50;95340.16;;;-13.65;64.02
59829;BME280;45708;51.848;107.620;2022-12-05T11:36:55;95343.59;;;-13.47;63.52
59829;BME280;45708;51.848;107.620;2022-12-05T11:42:19;95355.97;;;-13.59;63.09
59829;BME280;45708;51.848;107.620;2022-12-05T11:58:15;95355.81;;;-13.74;63.57
59829;BME280;45708;51.848;107.620;2022-12-05T12:19:18;95361.31;;;-13.65;62.59
59829;BME280;45708;51.848;107.620;2022-12-05T12:29:41;95343.06;;;-13.54;62.49
59829;BME280;45708;51.848;107.620;2022-12-05T12:34:58;95321.41;;;-13.63;62.46
59829;BME280;45708;51.848;107.620;2022-12-05T12:50:32;95298.97;;;-13.34;62.85
59829;BME280;45708;51.848;107.620;2022-12-05T12:55:41;95299.25;;;-13.40;63.51
59829;BME280;45708;51.848;107.620;2022-12-05T13:01:15;95299.22;;;-13.22;63.31
59829;BME280;45708;51.848;107.620;2022-12-05T13:06:27;95294.84;;;-13.18;62.65
59829;BME280;45708;51.848;107.620;2022-12-05T13:11:32;95305.16;;;-13.21;62.93
59829;BME280;45708;51.848;107.620;2022-12-05T13:16:37;95280.00;;;-13.27;62.51
59829;BME280;45708;51.848;107.620;2022-12-05T13:21:39;95278.88;;;-13.22;62.86
59829;BME280;45708;51.848;107.620;2022-12-05T13:26:46;95274.41;;;-13.53;63.06
59829;BME280;45708;51.848;107.620;2022-12-05T13:31:48;95262.44;;;-13.50;63.63
59829;BME280;45708;51.848;107.620;2022-12-05T13:36:49;95242.25;;;-13.35;63.74
59829;BME280;45708;51.848;107.620;2022-12-05T13:41:53;95238.72;;;-13.15;64.37
59829;BME280;45708;51.848;107.620;2022-12-05T13:46:56;95220.38;;;-13.20;64.04
59829;BME280;45708;51.848;107.620;2022-12-05T13:52:14;95178.94;;;-13.39;64.69
59829;BME280;45708;51.848;107.620;2022-12-05T14:07:48;95189.38;;;-13.11;67.76
59829;BME280;45708;51.848;107.620;2022-12-05T14:12:54;95184.78;;;-13.20;68.08
59829;BME280;45708;51.848;107.620;2022-12-05T14:18:00;95187.56;;;-13.09;68.43
59829;BME280;45708;51.848;107.620;2022-12-05T14:23:17;95172.00;;;-13.03;68.95
59829;BME280;45708;51.848;107.620;2022-12-05T14:28:47;95139.94;;;-13.38;68.43
59829;BME280;45708;51.848;107.620;2022-12-05T14:39:29;95192.81;;;-13.12;68.09
59829;BME280;45708;51.848;107.620;2022-12-05T14:44:31;95184.72;;;-13.03;67.35
59829;BME280;45708;51.848;107.620;2022-12-05T14:49:52;95185.19;;;-12.95;66.34
59829;BME280;45708;51.848;107.620;2022-12-05T14:55:00;95157.97;;;-12.93;66.92
59829;BME280;45708;51.848;107.620;2022-12-05T15:00:03;95157.66;;;-12.86;66.42
59829;BME280;45708;51.848;107.620;2022-12-05T15:05:22;95157.38;;;-12.80;65.98
59829;BME280;45708;51.848;107.620;2022-12-05T15:10:35;95126.97;;;-12.83;66.30
59829;BME280;45708;51.848;107.620;2022-12-05T15:15:46;95137.59;;;-12.75;66.53
59829;BME280;45708;51.848;107.620;2022-12-05T15:26:25;95129.56;;;-12.68;66.51
59829;BME280;45708;51.848;107.620;2022-12-05T15:31:28;95096.31;;;-12.80;66.18
59829;BME280;45708;51.848;107.620;2022-12-05T15:36:35;95115.28;;;-12.70;66.33
59829;BME280;45708;51.848;107.620;2022-12-05T15:41:38;95089.00;;;-12.86;66.95
59829;BME280;45708;51.848;107.620;2022-12-05T15:46:39;95119.63;;;-12.72;66.39
59829;BME280;45708;51.848;107.620;2022-12-05T15:51:42;95102.41;;;-12.67;66.56
59829;BME280;45708;51.848;107.620;2022-12-05T15:57:05;95112.56;;;-12.67;66.91
59829;BME280;45708;51.848;107.620;2022-12-05T16:02:16;95110.59;;;-12.62;67.26
59829;BME280;45708;51.848;107.620;2022-12-05T16:07:21;95084.34;;;-12.78;67.83
59829;BME280;45708;51.848;107.620;2022-12-05T16:17:50;95079.97;;;-12.92;68.26
59829;BME280;45708;51.848;107.620;2022-12-05T16:22:54;95088.81;;;-12.50;68.73
59829;BME280;45708;51.848;107.620;2022-12-05T16:28:12;95064.75;;;-12.45;68.76
59829;BME280;45708;51.848;107.620;2022-12-05T16:33:15;95056.94;;;-12.10;68.88
59829;BME280;45708;51.848;107.620;2022-12-05T16:43:41;95070.22;;;-11.29;69.52
59829;BME280;45708;51.848;107.620;2022-12-05T16:48:45;95069.19;;;-11.27;70.13
59829;BME280;45708;51.848;107.620;2022-12-05T16:53:49;95075.19;;;-10.69;70.52
59829;BME280;45708;51.848;107.620;2022-12-05T16:58:51;95069.78;;;-10.51;70.61
59829;BME280;45708;51.848;107.620;2022-12-05T17:03:53;95070.72;;;-10.52;70.66
59829;BME280;45708;51.848;107.620;2022-12-05T17:08:54;95057.84;;;-10.64;69.71
59829;BME280;45708;51.848;107.620;2022-12-05T17:13:56;95038.09;;;-10.89;69.28
59829;BME280;45708;51.848;107.620;2022-12-05T17:18:57;95029.81;;;-10.79;69.10
59829;BME280;45708;51.848;107.620;2022-12-05T17:23:59;95032.41;;;-11.23;69.43
59829;BME280;45708;51.848;107.620;2022-12-05T17:29:00;95016.22;;;-11.36;69.14
59829;BME280;45708;51.848;107.620;2022-12-05T17:34:01;95030.06;;;-10.83;69.68
59829;BME280;45708;51.848;107.620;2022-12-05T17:39:02;95053.22;;;-10.58;69.46
59829;BME280;45708;51.848;107.620;2022-12-05T17:44:04;95021.31;;;-10.65;70.16
59829;BME280;45708;51.848;107.620;2022-12-05T17:49:07;95035.25;;;-10.15;70.64
59829;BME280;45708;51.848;107.620;2022-12-05T17:54:10;95005.53;;;-9.76;68.97
59829;BME280;45708;51.848;107.620;2022-12-05T17:59:12;95006.78;;;-9.44;69.32
59829;BME280;45708;51.848;107.620;2022-12-05T18:04:13;95027.75;;;-9.52;69.02
59829;BME280;45708;51.848;107.620;2022-12-05T18:09:14;95024.06;;;-10.00;69.06
59829;BME280;45708;51.848;107.620;2022-12-05T18:14:16;94977.31;;;-10.41;69.85
59829;BME280;45708;51.848;107.620;2022-12-05T18:19:17;94749.13;;;-11.86;69.78
59829;BME280;45708;51.848;107.620;2022-12-05T18:24:20;95015.53;;;-10.40;69.73
59829;BME280;45708;51.848;107.620;2022-12-05T18:29:22;94991.66;;;-10.39;69.60
59829;BME280;45708;51.848;107.620;2022-12-05T18:34:23;94947.59;;;-10.03;68.83
59829;BME280;45708;51.848;107.620;2022-12-05T18:39:25;94946.47;;;-9.34;67.62
59829;BME280;45708;51.848;107.620;2022-12-05T18:44:27;94966.00;;;-8.95;67.35
59829;BME280;45708;51.848;107.620;2022-12-05T18:49:29;94970.72;;;-8.65;67.33
59829;BME280;45708;51.848;107.620;2022-12-05T18:54:30;94938.81;;;-8.72;69.30
59829;BME280;45708;51.848;107.620;2022-12-05T18:59:32;94969.91;;;-8.65;70.13
59829;BME280;45708;51.848;107.620;2022-12-05T19:04:33;94998.13;;;-8.41;70.47
59829;BME280;45708;51.848;107.620;2022-12-05T19:09:35;94975.34;;;-8.57;70.72
59829;BME280;45708;51.848;107.620;2022-12-05T19:14:36;94936.75;;;-8.67;71.55
59829;BME280;45708;51.848;107.620;2022-12-05T19:19:38;94986.28;;;-8.31;71.74
59829;BME280;45708;51.848;107.620;2022-12-05T19:24:40;94967.38;;;-8.41;71.79
59829;BME280;45708;51.848;107.620;2022-12-05T19:29:42;94919.31;;;-8.62;71.90
59829;BME280;45708;51.848;107.620;2022-12-05T19:34:44;94908.72;;;-8.81;72.76
59829;BME280;45708;51.848;107.620;2022-12-05T19:39:45;94922.75;;;-8.86;74.02
59829;BME280;45708;51.848;107.620;2022-12-05T19:44:48;94893.53;;;-9.08;74.62
59829;BME280;45708;51.848;107.620;2022-12-05T19:49:50;94955.91;;;-8.72;75.50
59829;BME280;45708;51.848;107.620;2022-12-05T19:54:51;94829.44;;;-9.43;75.59
59829;BME280;45708;51.848;107.620;2022-12-05T19:59:52;94913.06;;;-8.94;75.98
59829;BME280;45708;51.848;107.620;2022-12-05T20:04:54;94912.19;;;-8.82;76.41
59829;BME280;45708;51.848;107.620;2022-12-05T20:09:56;94940.00;;;-8.65;76.29
59829;BME280;45708;51.848;107.620;2022-12-05T20:14:58;94925.06;;;-8.71;77.47
59829;BME280;45708;51.848;107.620;2022-12-05T20:19:58;94938.97;;;-8.62;76.99
59829;BME280;45708;51.848;107.620;2022-12-05T20:25:01;94852.69;;;-9.09;77.73
59829;BME280;45708;51.848;107.620;2022-12-05T20:30:02;94918.09;;;-8.69;77.75
59829;BME280;45708;51.848;107.620;2022-12-05T20:35:04;94933.25;;;-8.66;78.27
59829;BME280;45708;51.848;107.620;2022-12-05T20:40:06;94912.59;;;-8.75;77.90
59829;BME280;45708;51.848;107.620;2022-12-05T20:45:08;94889.69;;;-8.77;78.54
59829;BME280;45708;51.848;107.620;2022-12-05T20:50:11;94911.13;;;-8.67;78.28
59829;BME280;45708;51.848;107.620;2022-12-05T20:55:12;94926.09;;;-8.61;79.10
59829;BME280;45708;51.848;107.620;2022-12-05T21:00:13;94926.47;;;-8.54;79.21
59829;BME280;45708;51.848;107.620;2022-12-05T21:05:14;94918.47;;;-8.49;78.89
59829;BME280;45708;51.848;107.620;2022-12-05T21:10:15;94912.84;;;-8.54;78.77
59829;BME280;45708;51.848;107.620;2022-12-05T21:15:16;94924.28;;;-8.47;79.35
59829;BME280;45708;51.848;107.620;2022-12-05T21:20:17;94919.88;;;-8.45;79.28
59829;BME280;45708;51.848;107.620;2022-12-05T21:25:19;94901.91;;;-8.56;79.34
59829;BME280;45708;51.848;107.620;2022-12-05T21:30:20;94912.63;;;-8.51;79.21
59829;BME280;45708;51.848;107.620;2022-12-05T21:35:21;94901.22;;;-8.47;79.53
59829;BME280;45708;51.848;107.620;2022-12-05T21:40:22;94882.81;;;-8.52;79.04
59829;BME280;45708;51.848;107.620;2022-12-05T21:45:23;94896.00;;;-8.46;79.36
59829;BME280;45708;51.848;107.620;2022-12-05T21:50:24;94900.53;;;-8.49;79.36
59829;BME280;45708;51.848;107.620;2022-12-05T21:55:25;94904.50;;;-8.45;79.16
59829;BME280;45708;51.848;107.620;2022-12-05T22:00:28;94908.59;;;-8.43;79.58
59829;BME280;45708;51.848;107.620;2022-12-05T22:05:28;94898.34;;;-8.43;79.36
59829;BME280;45708;51.848;107.620;2022-12-05T22:10:29;94886.38;;;-8.31;78.67
59829;BME280;45708;51.848;107.620;2022-12-05T22:15:30;94895.03;;;-8.21;78.55
59829;BME280;45708;51.848;107.620;2022-12-05T22:20:32;94880.56;;;-8.33;78.76
59829;BME280;45708;51.848;107.620;2022-12-05T22:25:33;94881.03;;;-8.39;79.29
59829;BME280;45708;51.848;107.620;2022-12-05T22:30:34;94897.00;;;-8.24;78.92
59829;BME280;45708;51.848;107.620;2022-12-05T22:35:35;94899.38;;;-8.45;78.93
59829;BME280;45708;51.848;107.620;2022-12-05T22:40:36;94913.41;;;-8.38;79.62
59829;BME280;45708;51.848;107.620;2022-12-05T22:45:38;94867.09;;;-8.59;80.09
59829;BME280;45708;51.848;107.620;2022-12-05T22:50:50;94888.84;;;-8.30;79.56
59829;BME280;45708;51.848;107.620;2022-12-05T22:55:52;94872.66;;;-8.30;79.68
59829;BME280;45708;51.848;107.620;2022-12-05T23:00:53;94871.28;;;-8.34;79.17
59829;BME280;45708;51.848;107.620;2022-12-05T23:05:54;94872.31;;;-8.25;79.49
59829;BME280;45708;51.848;107.620;2022-12-05T23:11:00;94858.91;;;-8.29;79.13
59829;BME280;45708;51.848;107.620;2022-12-05T23:16:09;94879.41;;;-8.29;79.40
59829;BME280;45708;51.848;107.620;2022-12-05T23:21:32;94866.38;;;-8.26;78.57
59829;BME280;45708;51.848;107.620;2022-12-05T23:26:34;94856.59;;;-8.21;78.30
59829;BME280;45708;51.848;107.620;2022-12-05T23:31:37;94873.69;;;-8.33;78.47
59829;BME280;45708;51.848;107.620;2022-12-05T23:36:38;94866.66;;;-8.18;77.75
59829;BME280;45708;51.848;107.620;2022-12-05T23:41:39;94879.66;;;-8.21;77.74
59829;BME280;45708;51.848;107.620;2022-12-05T23:46:40;94871.31;;;-8.12;76.89
59829;BME280;45708;51.848;107.620;2022-12-05T23:51:41;94881.13;;;-8.06;75.14
59829;BME280;45708;51.848;107.620;2022-12-05T23:56:42;94873.94;;;-8.01;74.05
